Boca Raton, FL (33428)

5:56 AM EDT on October 26, 2014 (GMT -0400)
West Boca Raton | Change Station
CLOSE
Current Station
Personal Weather Station
Location: Boca Raton, FL
Elevation: 33 ft
Nearby Weather Stations

Elev 33 ft 26.34 °N, 80.21 °W | Updated 9 minutes ago

Clear
Clear
67.5 °F
Feels Like 67.5 °F
N
4.2
Wind Variable Wind from ESE

Today
High -- | Low -- °F
--% Chance of Precip.
Yesterday
High -- | Low -- °F
Precip. -- in
7:26 AM 6:42 PM
Waxing Crescent, 7% visible
Pressure 29.90 in
Visibility 10.0 miles
Clouds Clear
Dew Point 67 °F
Humidity 98%
Rainfall 0.00 in
Snow Depth Not available.
UV 0.0 out of 12
Pollen 4.50 out of 12
Air Quality Not available.
Flu Activity Local Activity
METAR KPMP 260953Z AUTO 33008KT 10SM CLR 21/17 A2990 RMK AO2 SLP125 T02060172

More Conditions Fewer Conditions

Pressure 29.90 in
Visibility 10.0 miles
Clouds Clear
Dew Point 67 °F
Humidity 98%
Rainfall 0.00 in
Snow Depth Not available.
UV 0.0 out of 12
Pollen 4.50 out of 12
Air Quality Not available.
Flu Activity Local Activity
METAR KPMP 260953Z AUTO 33008KT 10SM CLR 21/17 A2990 RMK AO2 SLP125 T02060172

More Conditions Fewer Conditions

10-Day Weather Forecast

Almanac

Astronomy

Oct. 26, 2014 Rise Set
Actual Time 7:26 AM EDT 6:42 PM EDT
Civil Twilight 7:02 AM EDT 7:06 PM EDT
Nautical Twilight 6:35 AM EDT 7:33 PM EDT
Astronomical Twilight 6:08 AM EDT 8:00 PM EDT
Moon 9:53 AM EDT 9:03 PM EDT
Length of Visible Light 12h 04m
Length of Day
11h 16m
Tomorrow will be 1m 24s shorter.
Waxing Crescent, 7% of the Moon is Illuminated
Today
Waxing Crescent
Oct 30
First Quarter
Nov 6
Full
Nov 14
Last Quarter
Nov 22
New

Today's Extremes

State Highs State Lows

Community

WunderPhotos

Upload Photos

1,765,132 photos uploaded!

Nearby

Air Quality

  Air Quality AQ Index Pollutant
Yesterday Good
PM2.5
Sunday Good
OZONE
Sunday Good
PM2.5
Monday Good
OZONE
Monday Good
PM2.5

Snow Depth

Station Depth Elevation
No new snow has been reported.

Earthquake Activity

City Distance Mag. Time & Date
No recent earthquake activity has been reported nearby.
Minimum magnitude displayed is 2.5.

Coastal Water Temperatures

Place Temperature
Lake Worth, FL 78.1 °F
Virginia Key, FL 78.1 °F

Nearby Weather Stations